createdAt,value
2023-03-11T00:00:49.121Z,7.00
2023-03-11T00:05:49.289Z,7.07
2023-03-11T00:08:28.140Z,7.75
2023-03-11T00:11:02.655Z,8.35
2023-03-11T00:13:32.471Z,7.05
2023-03-11T00:16:03.061Z,6.80
2023-03-11T00:18:37.610Z,7.03
2023-03-11T00:21:07.534Z,7.03
2023-03-11T00:23:38.594Z,6.90
2023-03-11T00:26:07.738Z,7.38
2023-03-11T00:28:36.925Z,7.10
2023-03-11T00:31:06.811Z,7.57
2023-03-11T00:33:35.969Z,7.13
2023-03-11T00:36:06.571Z,7.85
2023-03-11T00:38:35.812Z,7.97
2023-03-11T00:41:06.925Z,8.30
2023-03-11T00:46:16.681Z,10.32
2023-03-11T00:48:45.750Z,7.53
2023-03-11T00:51:17.147Z,10.07
2023-03-11T00:53:46.829Z,10.95
2023-03-11T00:56:18.259Z,9.93
2023-03-11T00:58:47.521Z,9.13
2023-03-11T01:03:56.501Z,9.70
2023-03-11T01:06:30.127Z,9.95
2023-03-11T01:11:48.400Z,8.40
2023-03-11T01:14:17.655Z,8.43
2023-03-11T01:16:46.979Z,8.48
2023-03-11T01:19:18.318Z,7.60
2023-03-11T01:21:47.464Z,8.55
2023-03-11T01:24:16.650Z,8.45
2023-03-11T01:29:27.641Z,8.02
2023-03-11T01:31:56.712Z,8.70
2023-03-11T01:34:31.297Z,8.07
2023-03-11T01:37:01.186Z,8.15
2023-03-11T01:39:30.414Z,8.80
2023-03-11T01:42:07.235Z,8.50
2023-03-11T01:44:41.449Z,8.27
2023-03-11T01:47:41.820Z,8.55
2023-03-11T01:50:15.242Z,9.50
2023-03-11T01:52:46.396Z,9.00
2023-03-11T01:55:19.096Z,9.20
2023-03-11T01:57:51.836Z,9.38
2023-03-11T02:00:21.770Z,8.65
2023-03-11T02:02:54.068Z,8.95
2023-03-11T02:05:25.643Z,8.35
2023-03-11T02:08:00.442Z,8.75
2023-03-11T02:10:34.970Z,8.55
2023-03-11T02:13:07.079Z,7.65
2023-03-11T02:15:38.349Z,8.75
2023-03-11T02:18:18.159Z,9.60
2023-03-11T02:20:54.741Z,8.63
2023-03-11T02:23:29.086Z,10.07
2023-03-11T02:26:06.337Z,8.95
2023-03-11T02:28:44.032Z,8.02
2023-03-11T02:31:14.815Z,11.73
2023-03-11T02:36:36.411Z,11.25
2023-03-11T02:39:07.536Z,11.07
2023-03-11T02:41:40.321Z,11.48
2023-03-11T02:49:14.511Z,10.85
2023-03-11T02:51:43.676Z,11.27
2023-03-11T02:54:12.883Z,13.80
2023-03-11T02:56:48.211Z,13.05
2023-03-11T02:59:19.397Z,12.50
2023-03-11T03:01:54.754Z,11.95
2023-03-11T03:04:29.747Z,11.60
2023-03-11T03:07:04.333Z,11.68
2023-03-11T03:09:34.088Z,11.60
2023-03-11T03:12:03.723Z,12.25
2023-03-11T03:14:36.814Z,11.30
2023-03-11T03:17:06.373Z,9.48
2023-03-11T03:19:35.821Z,10.63
2023-03-11T03:22:05.431Z,10.98
2023-03-11T03:24:35.540Z,8.70
2023-03-11T03:27:04.997Z,10.73
2023-03-11T03:29:36.163Z,9.50
2023-03-11T03:32:10.410Z,10.10
2023-03-11T03:34:39.691Z,7.78
2023-03-11T03:37:09.093Z,9.18
2023-03-11T03:39:38.728Z,8.52
2023-03-11T03:42:09.382Z,9.23
2023-03-11T03:44:44.105Z,9.85
2023-03-11T03:47:18.773Z,10.00
2023-03-11T03:49:48.361Z,11.10
2023-03-11T03:52:17.583Z,11.10
2023-03-11T03:54:51.975Z,13.02
2023-03-11T03:57:21.122Z,11.40
2023-03-11T03:59:52.975Z,11.38
2023-03-11T04:02:22.390Z,8.63
2023-03-11T04:04:52.821Z,11.00
2023-03-11T04:07:27.513Z,10.25
2023-03-11T04:09:56.858Z,10.52
2023-03-11T04:12:26.134Z,12.38
2023-03-11T04:14:57.455Z,12.45
2023-03-11T04:19:57.798Z,14.10
2023-03-11T04:22:27.484Z,12.32
2023-03-11T04:24:56.631Z,11.23
2023-03-11T04:27:33.916Z,13.63
2023-03-11T04:32:48.734Z,12.15
2023-03-11T04:35:23.117Z,12.50
2023-03-11T04:37:58.467Z,13.00
2023-03-11T04:40:28.964Z,12.65
2023-03-11T04:42:58.357Z,11.52
2023-03-11T04:45:36.382Z,10.23
2023-03-11T04:48:06.644Z,12.20
2023-03-11T04:50:36.554Z,11.75
2023-03-11T04:53:11.138Z,11.13
2023-03-11T04:55:41.142Z,12.75
2023-03-11T04:58:10.727Z,13.27
2023-03-11T05:00:43.637Z,13.35
2023-03-11T05:03:20.268Z,16.27
2023-03-11T05:08:24.648Z,16.75
2023-03-11T05:10:54.691Z,16.20
2023-03-11T05:13:30.126Z,14.65
2023-03-11T05:16:01.700Z,15.82
2023-03-11T05:18:32.113Z,15.38
2023-03-11T05:21:01.335Z,16.05
2023-03-11T05:23:33.723Z,13.75
2023-03-11T05:26:03.754Z,14.88
2023-03-11T05:28:34.666Z,15.50
2023-03-11T05:31:10.487Z,13.18
2023-03-11T05:33:41.343Z,15.02
2023-03-11T05:36:14.023Z,11.27
2023-03-11T05:38:46.233Z,12.60
2023-03-11T05:41:17.708Z,13.05
2023-03-11T05:43:52.071Z,12.25
2023-03-11T05:46:23.550Z,13.23
2023-03-11T05:48:52.944Z,11.70
2023-03-11T05:51:22.299Z,13.77
2023-03-11T05:53:51.647Z,10.43
2023-03-11T05:56:34.103Z,10.85
2023-03-11T05:59:03.411Z,10.60
2023-03-11T06:01:39.276Z,9.80
2023-03-11T06:04:08.908Z,6.47
2023-03-11T06:06:38.497Z,6.43
2023-03-11T06:09:07.773Z,6.35
2023-03-11T06:11:37.238Z,5.90
2023-03-11T06:14:15.263Z,6.57
2023-03-11T06:16:48.843Z,5.50
2023-03-11T06:21:50.860Z,6.28
2023-03-11T06:24:20.832Z,6.35
2023-03-11T06:26:53.900Z,4.43
2023-03-11T06:29:34.727Z,5.78
2023-03-11T06:32:06.130Z,4.93
2023-03-11T06:34:35.436Z,4.82
2023-03-11T06:37:10.702Z,5.88
2023-03-11T06:39:42.078Z,6.22
2023-03-11T06:42:14.583Z,5.93
2023-03-11T06:44:45.075Z,6.00
2023-03-11T06:47:16.833Z,5.55
2023-03-11T06:52:15.380Z,4.40
2023-03-11T06:54:44.913Z,5.20
2023-03-11T06:57:20.438Z,5.32
2023-03-11T06:59:51.696Z,3.78
2023-03-11T07:02:23.864Z,4.45
2023-03-11T07:04:53.279Z,3.88
2023-03-11T07:07:22.977Z,4.70
2023-03-11T07:09:58.393Z,4.15
2023-03-11T07:12:27.839Z,3.70
2023-03-11T07:15:14.166Z,3.45
2023-03-11T07:17:48.762Z,4.03
2023-03-11T07:20:26.142Z,4.32
2023-03-11T07:22:55.513Z,3.95
2023-03-11T07:25:24.655Z,3.70
2023-03-11T07:28:06.004Z,3.38
2023-03-11T07:30:44.046Z,4.03
2023-03-11T07:33:21.323Z,4.05
2023-03-11T07:35:50.667Z,3.80
2023-03-11T07:38:21.046Z,4.38
2023-03-11T07:40:59.347Z,3.72
2023-03-11T07:43:33.976Z,4.35
2023-03-11T07:46:08.495Z,3.47
2023-03-11T07:48:43.897Z,3.00
2023-03-11T07:51:15.337Z,3.55
2023-03-11T07:53:44.980Z,3.38
2023-03-11T07:58:52.329Z,3.45
2023-03-11T08:01:26.427Z,3.10
2023-03-11T08:04:02.942Z,3.60
2023-03-11T08:06:34.750Z,3.17
2023-03-11T08:09:06.434Z,3.03
2023-03-11T08:11:35.974Z,2.80
2023-03-11T08:14:05.820Z,2.55
2023-03-11T08:16:35.601Z,3.63
2023-03-11T08:19:06.729Z,3.42
2023-03-11T08:21:36.522Z,3.08
2023-03-11T08:24:06.954Z,3.63
2023-03-11T08:26:42.472Z,2.95
2023-03-11T08:29:11.949Z,2.88
2023-03-11T08:31:41.257Z,2.60
2023-03-11T08:34:13.456Z,2.60
2023-03-11T08:36:43.290Z,2.75
2023-03-11T08:39:12.817Z,2.72
2023-03-11T08:41:47.160Z,2.85
2023-03-11T08:44:16.272Z,2.53
2023-03-11T08:46:45.685Z,2.88
2023-03-11T08:49:16.886Z,3.05
2023-03-11T08:51:46.107Z,3.05
2023-03-11T08:54:17.327Z,4.38
2023-03-11T08:56:47.489Z,2.70
2023-03-11T08:59:21.870Z,2.47
2023-03-11T09:01:51.582Z,2.60
2023-03-11T09:06:57.478Z,2.33
2023-03-11T09:09:29.621Z,3.20
2023-03-11T09:12:03.972Z,2.72
2023-03-11T09:14:33.068Z,2.50
2023-03-11T09:17:02.277Z,2.67
2023-03-11T09:19:38.633Z,2.63
2023-03-11T09:22:09.364Z,3.17
2023-03-11T09:24:40.936Z,3.22
2023-03-11T09:27:12.690Z,3.45
2023-03-11T09:29:42.530Z,3.72
2023-03-11T09:32:14.714Z,3.72
2023-03-11T09:37:15.059Z,3.90
2023-03-11T09:39:45.448Z,5.10
2023-03-11T09:42:27.264Z,3.47
2023-03-11T09:45:05.338Z,4.43
2023-03-11T09:47:42.239Z,3.22
2023-03-11T09:52:53.230Z,2.85
2023-03-11T09:55:39.679Z,2.47
2023-03-11T09:58:44.205Z,2.35
2023-03-11T10:01:24.513Z,2.95
2023-03-11T10:04:01.793Z,3.00
2023-03-11T10:06:33.425Z,3.03
2023-03-11T10:09:09.630Z,3.00
2023-03-11T10:11:58.394Z,2.72
2023-03-11T10:14:42.502Z,3.15
2023-03-11T10:17:22.723Z,2.80
2023-03-11T10:19:57.323Z,3.90
2023-03-11T10:22:35.226Z,3.33
2023-03-11T10:25:13.614Z,2.97
2023-03-11T10:27:47.738Z,2.25
2023-03-11T10:30:25.409Z,2.35
2023-03-11T10:32:58.729Z,2.72
2023-03-11T10:38:24.125Z,3.13
2023-03-11T10:43:28.824Z,2.45
2023-03-11T10:45:58.144Z,2.45
2023-03-11T10:48:27.965Z,2.10
2023-03-11T10:51:03.768Z,2.40
2023-03-11T10:53:45.457Z,2.22
2023-03-11T10:56:32.018Z,2.50
2023-03-11T10:59:02.304Z,2.35
2023-03-11T11:01:32.039Z,2.15
2023-03-11T11:04:25.761Z,2.60
2023-03-11T11:06:56.250Z,2.60
2023-03-11T11:09:30.671Z,2.65
2023-03-11T11:12:12.201Z,4.68
2023-03-11T11:14:49.684Z,4.03
2023-03-11T11:17:21.210Z,3.30
2023-03-11T11:19:54.099Z,3.20
2023-03-11T11:22:25.143Z,3.53
2023-03-11T11:24:58.525Z,4.25
2023-03-11T11:27:35.503Z,3.78
2023-03-11T11:30:18.459Z,4.53
2023-03-11T11:32:47.969Z,4.53
2023-03-11T11:35:24.489Z,3.90
2023-03-11T11:37:56.317Z,4.25
2023-03-11T11:40:33.664Z,3.97
2023-03-11T11:43:13.507Z,4.30
2023-03-11T11:45:45.664Z,4.88
2023-03-11T11:48:25.081Z,6.35
2023-03-11T11:50:55.772Z,4.07
2023-03-11T11:53:34.608Z,3.88
2023-03-11T11:56:06.087Z,3.90
2023-03-11T11:58:36.823Z,3.28
2023-03-11T12:01:15.986Z,3.90
2023-03-11T12:04:14.073Z,4.10
2023-03-11T12:06:49.630Z,3.45
2023-03-11T12:09:28.093Z,3.47
2023-03-11T12:12:05.918Z,3.58
2023-03-11T12:14:50.013Z,4.07
2023-03-11T12:17:23.143Z,4.53
2023-03-11T12:20:13.260Z,3.53
2023-03-11T12:23:15.921Z,3.92
2023-03-11T12:26:06.747Z,3.80
2023-03-11T12:28:45.246Z,3.20
2023-03-11T12:31:20.835Z,3.67
2023-03-11T12:33:52.747Z,4.40
2023-03-11T12:38:59.136Z,4.97
2023-03-11T12:41:39.749Z,3.47
2023-03-11T12:44:26.884Z,3.13
2023-03-11T12:52:57.639Z,4.25
2023-03-11T12:55:36.144Z,3.63
2023-03-11T12:58:46.343Z,3.50
2023-03-11T13:01:27.240Z,3.10
2023-03-11T13:04:17.209Z,2.92
2023-03-11T13:07:15.470Z,2.53
2023-03-11T13:12:43.627Z,3.13
2023-03-11T13:15:36.237Z,2.85
2023-03-11T13:18:17.053Z,5.28
2023-03-11T13:21:00.452Z,4.20
2023-03-11T13:23:40.047Z,3.95
2023-03-11T13:26:39.647Z,3.67
2023-03-11T13:29:31.272Z,3.08
2023-03-11T13:32:18.567Z,3.08
2023-03-11T13:35:02.563Z,3.30
2023-03-11T13:37:42.205Z,3.25
2023-03-11T13:40:21.899Z,3.00
2023-03-11T13:42:56.132Z,3.28
2023-03-11T13:45:30.857Z,2.92
2023-03-11T13:48:09.810Z,3.22
2023-03-11T13:50:43.882Z,2.65
2023-03-11T13:53:26.313Z,2.88
2023-03-11T13:55:55.528Z,3.00
2023-03-11T14:01:08.727Z,4.03
2023-03-11T14:03:45.410Z,3.33
2023-03-11T14:06:21.142Z,3.72
2023-03-11T14:08:55.972Z,3.75
2023-03-11T14:11:28.921Z,3.05
2023-03-11T14:14:29.849Z,3.75
2023-03-11T14:17:01.126Z,3.03
2023-03-11T14:19:30.410Z,3.70
2023-03-11T14:21:59.722Z,3.28
2023-03-11T14:24:31.661Z,3.75
2023-03-11T14:29:37.566Z,2.90
2023-03-11T14:32:29.537Z,2.88
2023-03-11T14:35:04.356Z,3.00
2023-03-11T14:37:36.008Z,3.25
2023-03-11T14:40:07.203Z,3.45
2023-03-11T14:42:38.566Z,3.25
2023-03-11T14:45:21.651Z,3.30
2023-03-11T14:47:53.919Z,2.85
2023-03-11T14:50:26.072Z,2.17
2023-03-11T14:53:03.057Z,3.13
2023-03-11T14:55:39.893Z,2.85
2023-03-11T14:58:15.877Z,2.42
2023-03-11T15:00:52.072Z,3.65
2023-03-11T15:08:38.860Z,1.70
2023-03-11T15:11:24.943Z,2.95
2023-03-11T15:13:55.095Z,3.33
2023-03-11T15:16:36.214Z,2.70
2023-03-11T15:19:24.208Z,2.53
2023-03-11T15:22:03.345Z,3.25
2023-03-11T15:24:35.126Z,3.15
2023-03-11T15:27:23.825Z,3.75
2023-03-11T15:29:54.136Z,3.05
2023-03-11T15:32:40.041Z,3.78
2023-03-11T15:35:18.944Z,3.40
2023-03-11T15:37:49.535Z,7.00
2023-03-11T15:40:35.316Z,4.50
2023-03-11T15:43:23.689Z,4.05
2023-03-11T15:45:55.237Z,3.60
2023-03-11T15:48:28.563Z,3.40
2023-03-11T15:51:01.753Z,3.50
2023-03-11T15:53:32.312Z,3.53
2023-03-11T15:56:08.151Z,4.25
2023-03-11T15:58:39.504Z,3.47
2023-03-11T16:01:09.218Z,3.63
2023-03-11T16:03:40.781Z,3.58
2023-03-11T16:06:13.016Z,3.30
2023-03-11T16:08:44.218Z,3.75
2023-03-11T16:11:14.503Z,3.70
2023-03-11T16:13:43.805Z,4.25
2023-03-11T16:16:20.334Z,3.40
2023-03-11T16:18:51.889Z,2.95
2023-03-11T16:21:32.923Z,4.03
2023-03-11T16:24:02.791Z,3.38
2023-03-11T16:29:19.417Z,3.05
2023-03-11T16:31:49.379Z,3.60
2023-03-11T16:34:25.900Z,3.47
2023-03-11T16:36:55.171Z,3.60
2023-03-11T16:39:24.490Z,3.13
2023-03-11T16:41:53.873Z,3.28
2023-03-11T16:44:23.160Z,3.78
2023-03-11T16:46:52.420Z,4.60
2023-03-11T16:49:21.716Z,4.28
2023-03-11T16:51:53.147Z,3.78
2023-03-11T16:54:22.578Z,5.03
2023-03-11T16:56:51.782Z,3.70
2023-03-11T16:59:26.043Z,3.90
2023-03-11T17:01:55.840Z,4.05
2023-03-11T17:04:25.117Z,4.22
2023-03-11T17:07:06.435Z,4.38
2023-03-11T17:09:36.652Z,4.45
2023-03-11T17:12:15.349Z,5.50
2023-03-11T17:14:49.584Z,4.63
2023-03-11T17:17:18.912Z,4.65
2023-03-11T17:19:48.481Z,2.85
2023-03-11T17:22:19.822Z,5.32
2023-03-11T17:24:50.657Z,4.70
2023-03-11T17:27:19.938Z,5.35
2023-03-11T17:29:49.241Z,4.93
2023-03-11T17:32:19.581Z,4.88
2023-03-11T17:34:54.279Z,5.20
2023-03-11T17:37:26.156Z,4.88
2023-03-11T17:42:24.641Z,4.70
2023-03-11T17:45:02.520Z,4.63
2023-03-11T17:47:34.203Z,4.63
2023-03-11T17:50:03.550Z,5.13
2023-03-11T17:52:35.047Z,6.03
2023-03-11T17:55:07.520Z,5.93
2023-03-11T17:57:45.115Z,5.57
2023-03-11T18:00:16.359Z,5.10
2023-03-11T18:02:45.766Z,5.90
2023-03-11T18:05:16.918Z,6.00
2023-03-11T18:07:50.059Z,6.88
2023-03-11T18:10:21.075Z,5.78
2023-03-11T18:12:55.448Z,5.53
2023-03-11T18:15:24.658Z,6.22
2023-03-11T18:17:56.621Z,5.82
2023-03-11T18:20:26.942Z,6.00
2023-03-11T18:22:58.196Z,6.55
2023-03-11T18:25:27.576Z,4.72
2023-03-11T18:27:56.755Z,5.15
2023-03-11T18:33:01.366Z,5.72
2023-03-11T18:35:33.537Z,7.13
2023-03-11T18:38:04.907Z,5.43
2023-03-11T18:40:34.069Z,4.80
2023-03-11T18:43:03.271Z,6.88
2023-03-11T18:45:32.586Z,5.75
2023-03-11T18:48:01.719Z,6.35
2023-03-11T18:50:36.018Z,5.32
2023-03-11T18:53:09.222Z,7.53
2023-03-11T18:55:38.531Z,6.78
2023-03-11T18:58:08.996Z,6.80
2023-03-11T19:00:43.741Z,5.93
2023-03-11T19:03:13.220Z,6.75
2023-03-11T19:05:49.557Z,7.25
2023-03-11T19:08:21.770Z,7.68
2023-03-11T19:11:01.391Z,6.80
2023-03-11T19:13:45.629Z,7.50
2023-03-11T19:16:16.981Z,8.73
2023-03-11T19:18:46.856Z,7.20
2023-03-11T19:21:17.208Z,8.90
2023-03-11T19:23:49.568Z,8.55
2023-03-11T19:28:54.330Z,8.50
2023-03-11T19:31:23.521Z,8.32
2023-03-11T19:33:59.385Z,7.10
2023-03-11T19:36:29.783Z,7.03
2023-03-11T19:39:00.931Z,9.77
2023-03-11T19:41:30.157Z,8.90
2023-03-11T19:43:59.494Z,8.88
2023-03-11T19:46:29.408Z,5.63
2023-03-11T19:48:59.192Z,8.50
2023-03-11T19:51:32.960Z,8.52
2023-03-11T19:54:16.792Z,8.40
2023-03-11T19:56:46.070Z,11.70
2023-03-11T19:59:15.340Z,9.38
2023-03-11T20:01:44.496Z,10.35
2023-03-11T20:04:14.609Z,9.88
2023-03-11T20:06:48.943Z,8.57
2023-03-11T20:09:20.502Z,9.18
2023-03-11T20:11:54.953Z,8.70
2023-03-11T20:14:29.228Z,10.50
2023-03-11T20:16:58.565Z,9.70
2023-03-11T20:19:28.132Z,10.70
2023-03-11T20:21:57.393Z,9.18
2023-03-11T20:24:28.744Z,8.40
2023-03-11T20:26:58.058Z,10.52
2023-03-11T20:29:27.289Z,10.70
2023-03-11T20:31:56.691Z,9.57
2023-03-11T20:34:26.505Z,9.90
2023-03-11T20:36:55.878Z,11.10
2023-03-11T20:39:30.378Z,11.23
2023-03-11T20:42:01.661Z,6.93
2023-03-11T20:44:31.075Z,9.93
2023-03-11T20:47:00.228Z,13.35
2023-03-11T20:49:29.543Z,10.57
2023-03-11T20:51:58.800Z,8.77
2023-03-11T20:54:27.913Z,11.05
2023-03-11T20:56:57.226Z,11.27
2023-03-11T20:59:28.476Z,11.68
2023-03-11T21:01:57.780Z,10.52
2023-03-11T21:04:27.448Z,12.70
2023-03-11T21:06:57.247Z,11.13
2023-03-11T21:09:26.614Z,7.85
2023-03-11T21:11:56.092Z,9.98
2023-03-11T21:14:26.232Z,11.50
2023-03-11T21:16:57.550Z,13.45
2023-03-11T21:21:56.081Z,15.23
2023-03-11T21:24:25.409Z,10.13
2023-03-11T21:26:54.844Z,13.52
2023-03-11T21:29:24.175Z,13.40
2023-03-11T21:31:53.446Z,13.85
2023-03-11T21:34:25.537Z,16.38
2023-03-11T21:39:24.551Z,15.00
2023-03-11T21:41:56.488Z,15.75
2023-03-11T21:46:54.562Z,10.80
2023-03-11T21:49:31.056Z,14.95
2023-03-11T21:52:02.178Z,13.27
2023-03-11T21:57:11.225Z,14.93
2023-03-11T21:59:40.477Z,12.48
2023-03-11T22:02:16.225Z,13.60
2023-03-11T22:04:52.723Z,12.25
2023-03-11T22:07:27.085Z,12.23
2023-03-11T22:09:56.671Z,11.73
2023-03-11T22:12:26.189Z,10.27
2023-03-11T22:14:55.530Z,11.40
2023-03-11T22:17:25.091Z,9.60
2023-03-11T22:19:56.394Z,12.18
2023-03-11T22:22:25.574Z,6.70
2023-03-11T22:24:54.747Z,7.65
2023-03-11T22:27:29.518Z,9.57
2023-03-11T22:29:58.752Z,9.48
2023-03-11T22:32:28.153Z,9.10
2023-03-11T22:34:59.305Z,9.90
2023-03-11T22:37:28.814Z,8.60
2023-03-11T22:39:58.488Z,8.88
2023-03-11T22:42:32.980Z,9.50
2023-03-11T22:45:02.589Z,10.32
2023-03-11T22:47:32.198Z,8.38
2023-03-11T22:52:43.402Z,9.30
2023-03-11T22:55:13.328Z,8.20
2023-03-11T22:57:42.573Z,8.45
2023-03-11T23:00:16.730Z,8.07
2023-03-11T23:02:51.570Z,7.03
2023-03-11T23:05:23.191Z,6.88
2023-03-11T23:07:53.044Z,6.60
2023-03-11T23:10:22.716Z,7.82
2023-03-11T23:12:57.010Z,7.38
2023-03-11T23:15:25.987Z,6.57
2023-03-11T23:17:55.098Z,7.07
2023-03-11T23:20:26.150Z,6.45
2023-03-11T23:22:55.408Z,5.38
2023-03-11T23:25:24.675Z,5.22
2023-03-11T23:27:53.945Z,6.38
2023-03-11T23:30:23.737Z,5.40
2023-03-11T23:32:52.980Z,7.53
2023-03-11T23:35:22.182Z,4.95
2023-03-11T23:37:53.450Z,6.97
2023-03-11T23:40:22.896Z,5.85
2023-03-11T23:42:52.342Z,6.18
2023-03-11T23:45:21.553Z,7.22
2023-03-11T23:47:51.108Z,7.55
2023-03-11T23:50:20.463Z,6.80
2023-03-11T23:52:49.727Z,6.85
2023-03-11T23:55:21.112Z,6.68
2023-03-11T23:57:50.383Z,5.88
